Time;durP1;ratioP1;P1;durP2;ratioP2;P2;SDS_P1;SDS_P2;PMS_P1;PMS_P2;Temp;Humidity;BMP_temperature;BMP_pressure;BME280_temperature;BME280_humidity;BME280_pressure;Samples;Min_cycle;Max_cycle;Signal;HPM_P1;HPM_P2
2021/08/23 00:01:14;;;;;;;3.00;2.70;;;15.90;99.90;;;;;;5053237;28;20498;-59
2021/08/23 00:03:42;;;;;;;5.10;2.80;;;15.90;99.90;;;;;;5053215;28;20451;-59
2021/08/23 00:06:10;;;;;;;3.30;2.80;;;15.90;99.90;;;;;;5053153;28;21122;-59
2021/08/23 00:08:37;;;;;;;4.00;2.57;;;16.10;99.90;;;;;;5052844;28;20458;-60
2021/08/23 00:11:04;;;;;;;3.30;2.90;;;16.00;99.90;;;;;;5051657;28;20509;-60
2021/08/23 00:13:31;;;;;;;3.20;2.90;;;15.90;99.90;;;;;;5052916;28;20518;-60
2021/08/23 00:15:58;;;;;;;3.73;2.50;;;15.80;99.90;;;;;;5050968;28;20904;-60
2021/08/23 00:18:25;;;;;;;4.50;3.00;;;15.80;99.90;;;;;;5053120;28;20452;-60
2021/08/23 00:20:57;;;;;;;3.10;2.80;;;15.80;99.90;;;;;;5053148;28;20452;-60
2021/08/23 00:23:27;;;;;;;4.40;3.07;;;15.80;99.90;;;;;;5053042;28;20505;-60
2021/08/23 00:25:55;;;;;;;3.40;3.10;;;15.80;99.90;;;;;;5052228;28;20890;-60
2021/08/23 00:28:22;;;;;;;2.77;2.57;;;15.80;99.90;;;;;;5053110;28;20872;-60
2021/08/23 00:30:49;;;;;;;2.63;2.40;;;15.80;99.90;;;;;;5052751;28;20451;-60
2021/08/23 00:33:16;;;;;;;3.60;2.93;;;15.80;99.90;;;;;;5052983;28;20456;-60
2021/08/23 00:35:44;;;;;;;5.00;2.73;;;15.80;99.90;;;;;;5052464;28;20483;-60
2021/08/23 00:38:12;;;;;;;2.77;2.50;;;15.80;99.90;;;;;;5053229;28;20535;-60
2021/08/23 00:40:39;;;;;;;3.53;2.60;;;15.70;99.90;;;;;;5052728;28;20448;-60
2021/08/23 00:43:07;;;;;;;2.63;2.17;;;15.70;99.90;;;;;;5051944;28;21142;-60
2021/08/23 00:45:34;;;;;;;3.30;2.70;;;15.80;99.90;;;;;;5052779;28;20997;-61
2021/08/23 00:58:08;;;;;;;3.17;2.80;;;15.80;99.90;;;;;;5052118;28;20492;-60
2021/08/23 01:00:39;;;;;;;2.47;2.00;;;15.80;99.90;;;;;;5052093;28;20985;-60
2021/08/23 01:03:12;;;;;;;5.00;2.30;;;15.70;99.90;;;;;;5052207;28;20443;-60
2021/08/23 01:05:40;;;;;;;2.50;2.30;;;15.70;99.90;;;;;;5052589;28;20472;-60
2021/08/23 01:08:09;;;;;;;3.93;2.30;;;15.60;99.90;;;;;;5039050;28;20461;-60
2021/08/23 01:10:42;;;;;;;3.63;2.40;;;15.60;99.90;;;;;;5049663;28;20452;-60
2021/08/23 01:13:10;;;;;;;3.43;2.30;;;15.70;99.90;;;;;;5052532;28;20509;-60
2021/08/23 01:15:38;;;;;;;2.47;1.97;;;15.70;99.90;;;;;;5052089;28;20569;-60
2021/08/23 01:18:05;;;;;;;2.27;2.07;;;15.80;99.90;;;;;;5052153;28;20517;-59
2021/08/23 01:20:34;;;;;;;2.17;2.00;;;15.80;99.90;;;;;;5052035;28;20452;-59
2021/08/23 01:23:03;;;;;;;3.93;2.70;;;15.90;99.90;;;;;;5051611;28;20517;-60
2021/08/23 01:25:33;;;;;;;4.40;2.40;;;15.90;99.90;;;;;;5051877;28;20472;-60
2021/08/23 01:28:07;;;;;;;2.33;2.00;;;15.90;99.90;;;;;;5050857;28;20452;-60
2021/08/23 01:30:45;;;;;;;2.50;2.30;;;16.00;99.90;;;;;;5043792;28;20510;-60
2021/08/23 01:33:14;;;;;;;5.43;2.20;;;15.90;99.90;;;;;;5032382;28;20636;-60
2021/08/23 01:35:41;;;;;;;2.43;1.90;;;16.00;99.90;;;;;;5040610;28;20483;-60
2021/08/23 01:38:08;;;;;;;2.57;2.37;;;16.00;99.90;;;;;;5052024;28;20519;-60
2021/08/23 01:40:35;;;;;;;2.40;2.20;;;16.00;99.90;;;;;;5052077;28;20447;-60
2021/08/23 01:43:04;;;;;;;2.17;1.97;;;15.90;99.90;;;;;;5050986;28;20509;-60
2021/08/23 01:45:31;;;;;;;3.47;2.37;;;15.90;99.90;;;;;;5051797;28;20460;-60
2021/08/23 01:47:58;;;;;;;2.80;2.13;;;15.80;99.90;;;;;;5051876;28;20505;-60
2021/08/23 01:50:26;;;;;;;2.67;2.40;;;15.80;99.90;;;;;;5051882;28;20937;-60
2021/08/23 01:52:53;;;;;;;4.63;2.10;;;15.80;99.90;;;;;;5050789;28;20448;-60
2021/08/23 01:55:20;;;;;;;3.77;2.17;;;15.80;99.90;;;;;;5050507;28;20576;-60
2021/08/23 01:57:47;;;;;;;2.07;1.83;;;15.80;99.90;;;;;;5051677;28;20995;-60
2021/08/23 02:00:16;;;;;;;2.67;1.87;;;15.80;99.90;;;;;;5050660;28;20944;-60
2021/08/23 02:02:43;;;;;;;4.70;2.57;;;15.70;99.90;;;;;;5051574;28;20462;-59
2021/08/23 02:05:10;;;;;;;3.23;2.23;;;15.70;99.90;;;;;;5051305;28;21062;-60
2021/08/23 02:07:38;;;;;;;3.40;2.23;;;15.80;99.90;;;;;;5050409;28;20447;-60
2021/08/23 02:10:06;;;;;;;6.97;2.47;;;15.80;99.90;;;;;;5051508;28;20452;-60
2021/08/23 02:12:33;;;;;;;3.20;2.43;;;15.80;99.90;;;;;;5051312;28;20514;-60
2021/08/23 02:15:00;;;;;;;2.23;2.03;;;15.80;99.90;;;;;;5051432;28;20471;-60
2021/08/23 02:17:29;;;;;;;2.53;2.33;;;15.80;99.90;;;;;;5051676;28;20553;-60
2021/08/23 02:19:56;;;;;;;3.87;2.30;;;15.80;99.90;;;;;;5050519;28;20586;-60
2021/08/23 02:22:26;;;;;;;3.33;2.50;;;15.70;99.90;;;;;;5050981;28;21115;-60
2021/08/23 02:24:55;;;;;;;3.30;2.23;;;15.80;99.90;;;;;;5050830;28;20472;-60
2021/08/23 02:27:23;;;;;;;4.23;1.97;;;15.80;99.90;;;;;;5051491;28;20447;-60
2021/08/23 02:29:50;;;;;;;2.53;2.10;;;15.90;99.90;;;;;;5050449;28;20452;-60
2021/08/23 02:32:17;;;;;;;2.13;1.90;;;15.80;99.90;;;;;;5050666;28;20440;-60
2021/08/23 02:34:44;;;;;;;5.13;2.27;;;15.80;99.90;;;;;;5051143;28;21054;-60
2021/08/23 02:37:11;;;;;;;3.00;2.10;;;15.70;99.90;;;;;;5051421;28;20479;-60
2021/08/23 02:39:38;;;;;;;2.70;2.40;;;15.70;99.90;;;;;;5050862;28;20964;-60
2021/08/23 02:42:07;;;;;;;3.37;2.10;;;15.70;99.90;;;;;;5049025;28;20448;-60
2021/08/23 02:44:34;;;;;;;2.40;2.20;;;15.60;99.90;;;;;;5050510;28;20525;-60
2021/08/23 02:47:01;;;;;;;2.60;2.00;;;15.60;99.90;;;;;;5050446;28;20447;-60
2021/08/23 02:49:28;;;;;;;2.20;1.80;;;15.70;99.90;;;;;;5050923;28;20513;-60
2021/08/23 02:51:55;;;;;;;4.00;2.70;;;15.70;99.90;;;;;;5050599;28;21044;-60
2021/08/23 02:54:22;;;;;;;2.53;2.10;;;15.60;99.90;;;;;;5052599;28;20997;-60
2021/08/23 02:56:50;;;;;;;5.20;2.20;;;15.70;99.90;;;;;;5046158;28;20480;-60
2021/08/23 02:59:18;;;;;;;3.77;2.13;;;15.70;99.90;;;;;;5038494;28;20440;-60
2021/08/23 03:01:45;;;;;;;2.40;2.20;;;15.70;99.90;;;;;;5036582;28;20444;-59
2021/08/23 03:04:12;;;;;;;2.50;2.30;;;15.70;99.90;;;;;;5031758;28;20528;-60
2021/08/23 03:06:39;;;;;;;2.40;2.10;;;15.70;99.90;;;;;;5035034;28;20487;-60
2021/08/23 03:09:06;;;;;;;2.40;1.83;;;15.60;99.90;;;;;;5041455;28;20513;-59
2021/08/23 03:11:33;;;;;;;2.47;2.07;;;15.60;99.90;;;;;;5053487;28;20994;-60
2021/08/23 03:14:00;;;;;;;2.13;1.77;;;15.60;99.90;;;;;;5053586;28;20468;-60
2021/08/23 03:16:28;;;;;;;2.50;2.10;;;15.60;99.90;;;;;;5053469;28;20498;-59
2021/08/23 03:18:55;;;;;;;2.70;2.23;;;15.70;99.90;;;;;;5034914;28;20490;-60
2021/08/23 03:21:22;;;;;;;2.20;2.00;;;15.80;99.90;;;;;;5035714;28;20954;-60
2021/08/23 03:23:49;;;;;;;2.60;2.40;;;15.60;99.90;;;;;;5053066;28;20446;-60
2021/08/23 03:26:16;;;;;;;4.17;2.60;;;15.70;99.90;;;;;;5038624;28;20502;-60
2021/08/23 03:28:43;;;;;;;2.37;2.17;;;15.70;99.90;;;;;;5034799;28;20502;-59
2021/08/23 03:31:10;;;;;;;3.70;2.10;;;15.80;99.90;;;;;;5034636;28;20879;-60
2021/08/23 03:33:40;;;;;;;3.10;1.93;;;15.80;99.90;;;;;;5037505;28;20459;-60
2021/08/23 03:36:07;;;;;;;3.97;2.77;;;15.80;99.90;;;;;;5041507;28;21052;-60
2021/08/23 03:38:34;;;;;;;2.83;2.17;;;15.80;99.90;;;;;;5053075;28;20447;-60
2021/08/23 03:41:01;;;;;;;2.50;1.80;;;15.80;99.90;;;;;;5036045;28;20522;-60
2021/08/23 03:43:28;;;;;;;2.43;2.00;;;15.80;99.90;;;;;;5034157;28;20804;-60
2021/08/23 03:45:55;;;;;;;3.07;2.23;;;15.80;99.90;;;;;;5042274;28;20472;-62
2021/08/23 03:48:22;;;;;;;7.10;2.40;;;15.80;99.90;;;;;;5045864;28;20456;-60
2021/08/23 03:50:50;;;;;;;2.40;2.20;;;15.70;99.90;;;;;;5052438;28;20448;-60
2021/08/23 03:53:17;;;;;;;2.87;2.33;;;15.80;99.90;;;;;;5044891;28;20440;-60
2021/08/23 03:55:44;;;;;;;4.17;2.53;;;15.80;99.90;;;;;;5033997;28;20522;-60
2021/08/23 03:58:11;;;;;;;4.07;2.13;;;15.90;99.90;;;;;;5043953;28;20877;-60
2021/08/23 04:00:38;;;;;;;2.30;2.10;;;15.90;99.90;;;;;;5048224;28;20454;-60
2021/08/23 04:03:05;;;;;;;6.03;2.90;;;15.90;99.90;;;;;;5052630;28;20493;-60
2021/08/23 04:05:32;;;;;;;2.97;2.23;;;15.90;99.90;;;;;;5045882;28;20477;-60
2021/08/23 04:08:01;;;;;;;4.50;1.70;;;15.90;99.90;;;;;;5034188;28;20585;-60
2021/08/23 04:10:28;;;;;;;2.77;2.27;;;15.90;99.90;;;;;;5034076;28;20444;-60
2021/08/23 04:12:54;;;;;;;2.40;1.70;;;16.00;99.90;;;;;;5033589;28;20445;-60
2021/08/23 04:15:22;;;;;;;3.17;1.93;;;15.90;99.90;;;;;;5033538;28;20518;-60
2021/08/23 04:17:49;;;;;;;3.10;2.03;;;15.90;99.90;;;;;;5032960;28;20476;-60
2021/08/23 04:20:16;;;;;;;2.70;1.80;;;16.00;99.90;;;;;;5048344;28;20448;-60
2021/08/23 04:22:43;;;;;;;2.10;1.90;;;15.90;99.90;;;;;;5038645;28;20879;-60
2021/08/23 04:25:11;;;;;;;2.90;1.90;;;15.90;99.90;;;;;;5039629;28;20549;-60
2021/08/23 04:27:38;;;;;;;2.20;2.00;;;15.80;99.90;;;;;;5037515;28;20479;-60
2021/08/23 04:30:06;;;;;;;3.10;2.47;;;15.90;99.90;;;;;;5038588;28;20506;-60
2021/08/23 04:32:33;;;;;;;3.27;2.40;;;15.80;99.90;;;;;;5036257;28;20449;-59
2021/08/23 04:35:00;;;;;;;3.20;2.43;;;15.70;99.90;;;;;;5043929;28;20472;-60
2021/08/23 04:37:27;;;;;;;5.17;2.60;;;15.60;99.90;;;;;;5050348;28;20896;-60
2021/08/23 04:39:54;;;;;;;4.50;2.80;;;15.60;99.90;;;;;;5051551;28;20455;-60
2021/08/23 04:42:25;;;;;;;4.10;2.80;;;15.70;99.90;;;;;;5052513;28;20505;-60
2021/08/23 04:44:52;;;;;;;3.90;3.03;;;15.60;99.90;;;;;;5052799;28;20471;-60
2021/08/23 04:47:19;;;;;;;4.30;2.70;;;15.60;99.90;;;;;;5053184;28;20803;-60
2021/08/23 04:49:46;;;;;;;3.50;2.40;;;15.60;99.90;;;;;;5052240;28;20494;-60
2021/08/23 04:52:13;;;;;;;3.67;2.77;;;15.70;99.90;;;;;;5050568;28;20451;-60
2021/08/23 04:54:40;;;;;;;2.93;2.67;;;15.70;99.90;;;;;;5048385;28;20483;-60
2021/08/23 04:57:07;;;;;;;2.60;2.40;;;15.70;99.90;;;;;;5043335;28;20488;-60
2021/08/23 04:59:36;;;;;;;2.53;2.23;;;15.70;99.90;;;;;;5032480;28;20456;-60
2021/08/23 05:02:03;;;;;;;2.37;2.17;;;15.70;99.90;;;;;;5038341;28;20482;-60
2021/08/23 05:04:30;;;;;;;3.90;2.80;;;15.80;99.90;;;;;;5031950;28;20505;-60
2021/08/23 05:06:57;;;;;;;3.43;2.40;;;15.80;99.90;;;;;;5045362;28;20475;-60
2021/08/23 05:09:24;;;;;;;4.70;2.40;;;15.90;99.90;;;;;;5039721;28;20946;-60
2021/08/23 05:11:51;;;;;;;4.30;2.13;;;16.00;99.90;;;;;;5032024;28;20445;-60
2021/08/23 05:14:18;;;;;;;2.60;2.40;;;16.00;99.90;;;;;;5035466;28;20471;-60
2021/08/23 05:16:46;;;;;;;5.10;2.57;;;16.10;99.90;;;;;;5031784;28;20484;-60
2021/08/23 05:19:13;;;;;;;3.40;2.20;;;16.20;99.90;;;;;;5048462;28;20513;-61
2021/08/23 05:21:40;;;;;;;2.80;1.87;;;16.20;99.90;;;;;;5048112;28;20455;-60
2021/08/23 05:24:07;;;;;;;3.03;2.23;;;16.30;99.90;;;;;;5051674;28;20468;-60
2021/08/23 05:26:37;;;;;;;3.30;2.33;;;16.30;99.90;;;;;;5052088;28;20448;-60
2021/08/23 05:29:04;;;;;;;3.23;2.80;;;16.40;99.90;;;;;;5051957;28;20459;-60
2021/08/23 05:31:31;;;;;;;2.90;2.40;;;16.50;99.90;;;;;;5051949;28;20463;-60
2021/08/23 05:33:59;;;;;;;5.47;2.87;;;16.50;99.90;;;;;;5051261;28;20573;-60
2021/08/23 05:36:26;;;;;;;2.70;2.40;;;16.50;99.90;;;;;;5051614;28;20594;-60
2021/08/23 05:38:53;;;;;;;3.77;2.80;;;16.50;99.90;;;;;;5051775;28;20455;-60
2021/08/23 05:41:20;;;;;;;4.10;3.10;;;16.50;99.90;;;;;;5049316;28;20468;-60
2021/08/23 05:43:47;;;;;;;2.50;2.30;;;16.50;99.90;;;;;;5054099;28;20447;-60
2021/08/23 05:46:19;;;;;;;3.40;2.50;;;16.50;99.90;;;;;;5051653;28;20505;-61
2021/08/23 05:48:46;;;;;;;5.27;2.77;;;16.50;99.90;;;;;;5050437;28;20447;-60
2021/08/23 05:51:15;;;;;;;4.27;2.80;;;16.60;99.90;;;;;;5046340;28;20509;-60
2021/08/23 05:53:42;;;;;;;3.30;2.60;;;16.50;99.90;;;;;;5049602;28;20502;-60
2021/08/23 05:56:09;;;;;;;5.80;2.77;;;16.60;99.90;;;;;;5051317;28;20819;-60
2021/08/23 05:58:37;;;;;;;3.63;3.00;;;16.60;99.90;;;;;;5051051;28;20537;-60
2021/08/23 06:01:05;;;;;;;5.10;2.87;;;16.70;99.90;;;;;;5054702;28;20456;-60
2021/08/23 06:03:32;;;;;;;2.90;2.70;;;16.70;99.90;;;;;;5042702;28;20970;-60
2021/08/23 06:06:04;;;;;;;6.67;2.97;;;16.80;99.90;;;;;;5049189;28;20527;-60
2021/08/23 06:08:32;;;;;;;4.30;3.00;;;16.80;99.90;;;;;;5045961;28;20526;-60
2021/08/23 06:10:59;;;;;;;3.80;2.60;;;17.10;99.90;;;;;;5050410;28;20524;-61
2021/08/23 06:13:26;;;;;;;3.40;2.40;;;17.40;99.90;;;;;;5051110;28;20459;-60
2021/08/23 06:15:54;;;;;;;5.17;3.10;;;17.40;99.90;;;;;;5049854;28;20487;-60
2021/08/23 06:18:21;;;;;;;5.40;2.63;;;17.40;99.90;;;;;;5050332;28;20491;-61
2021/08/23 06:20:49;;;;;;;3.57;3.17;;;17.60;99.90;;;;;;5049817;28;20459;-61
2021/08/23 06:23:16;;;;;;;6.07;2.77;;;17.70;99.90;;;;;;5050919;28;20501;-61
2021/08/23 06:25:45;;;;;;;5.73;2.63;;;17.70;99.90;;;;;;5046812;28;20538;-61
2021/08/23 06:28:12;;;;;;;3.20;2.90;;;17.70;99.90;;;;;;5049375;28;20452;-61
2021/08/23 06:30:39;;;;;;;4.80;3.00;;;17.80;99.90;;;;;;5049855;28;20520;-61
2021/08/23 06:33:06;;;;;;;3.43;2.40;;;17.80;99.90;;;;;;5051217;28;20451;-61
2021/08/23 06:35:33;;;;;;;3.10;2.67;;;17.90;99.90;;;;;;5051220;28;20467;-61
2021/08/23 06:38:00;;;;;;;7.80;2.93;;;18.10;99.90;;;;;;5044795;28;21056;-61
2021/08/23 06:40:27;;;;;;;2.57;2.33;;;18.20;99.90;;;;;;5046905;28;20505;-60
2021/08/23 06:42:55;;;;;;;3.87;2.83;;;18.40;99.90;;;;;;5054909;28;20444;-60
2021/08/23 06:45:22;;;;;;;2.70;2.40;;;18.70;99.90;;;;;;5048460;28;21071;-61
2021/08/23 06:47:49;;;;;;;5.00;2.40;;;18.80;99.90;;;;;;5054819;28;20849;-61
2021/08/23 06:50:16;;;;;;;2.87;2.10;;;19.30;99.90;;;;;;5053953;28;20483;-61
2021/08/23 06:52:46;;;;;;;3.00;2.13;;;19.80;99.90;;;;;;5054695;28;20509;-61
2021/08/23 06:55:13;;;;;;;2.57;2.37;;;20.20;99.90;;;;;;5054742;28;20471;-61
2021/08/23 06:57:41;;;;;;;2.17;1.97;;;21.00;99.90;;;;;;5054783;28;20487;-61
2021/08/23 07:00:11;;;;;;;3.10;2.30;;;21.60;99.90;;;;;;5054493;28;20513;-61
2021/08/23 07:02:38;;;;;;;3.70;1.90;;;21.80;99.90;;;;;;5054120;28;20447;-61
2021/08/23 07:05:06;;;;;;;3.17;1.90;;;22.20;99.90;;;;;;5052919;28;20976;-61
2021/08/23 07:07:33;;;;;;;2.00;1.63;;;22.30;99.90;;;;;;5054543;28;20471;-61
2021/08/23 07:10:00;;;;;;;2.93;2.27;;;22.50;99.90;;;;;;5053317;28;20531;-61
2021/08/23 07:12:31;;;;;;;2.20;2.00;;;22.40;99.90;;;;;;5046022;28;20575;-61
2021/08/23 07:14:58;;;;;;;2.37;2.17;;;22.40;99.90;;;;;;5035149;28;20467;-62
2021/08/23 07:17:26;;;;;;;3.00;1.70;;;22.40;99.90;;;;;;5054400;28;20479;-61
2021/08/23 07:19:54;;;;;;;2.60;1.97;;;22.50;99.90;;;;;;5054197;28;20482;-61
2021/08/23 07:22:21;;;;;;;1.80;1.70;;;22.20;99.90;;;;;;5052776;28;20468;-61
2021/08/23 07:24:48;;;;;;;2.27;2.00;;;21.70;99.90;;;;;;5053975;28;20993;-61
2021/08/23 07:27:16;;;;;;;2.70;1.83;;;21.60;99.90;;;;;;5054305;28;20497;-62
2021/08/23 07:29:43;;;;;;;1.83;1.70;;;21.80;99.90;;;;;;5047436;28;21015;-62
2021/08/23 07:32:10;;;;;;;2.80;2.00;;;22.50;99.90;;;;;;5053764;28;20455;-62
2021/08/23 07:34:39;;;;;;;2.17;1.80;;;23.30;99.90;;;;;;5053166;28;20544;-61
2021/08/23 07:37:06;;;;;;;2.37;1.80;;;24.00;99.90;;;;;;5052762;28;20503;-62
2021/08/23 07:39:33;;;;;;;3.03;2.00;;;24.60;99.90;;;;;;5054258;28;20525;-62
2021/08/23 07:42:00;;;;;;;2.17;1.70;;;25.00;99.90;;;;;;5053767;28;20443;-62
2021/08/23 07:44:27;;;;;;;3.70;1.80;;;25.60;99.90;;;;;;5050289;28;20551;-62
2021/08/23 07:46:54;;;;;;;2.30;2.00;;;25.70;99.90;;;;;;5053343;28;20513;-62
2021/08/23 07:49:21;;;;;;;4.97;2.07;;;26.00;99.90;;;;;;5047838;28;20950;-62
2021/08/23 07:51:50;;;;;;;1.90;1.80;;;26.40;99.90;;;;;;5038247;28;20501;-62
2021/08/23 07:54:18;;;;;;;1.70;1.60;;;26.70;99.90;;;;;;5045383;28;20487;-62
2021/08/23 07:56:46;;;;;;;2.17;1.43;;;26.70;99.90;;;;;;5053290;28;20517;-62
2021/08/23 07:59:13;;;;;;;4.60;1.60;;;27.10;99.90;;;;;;5048483;28;20473;-62
2021/08/23 08:01:40;;;;;;;1.60;1.50;;;26.40;99.90;;;;;;5033966;28;20498;-62
2021/08/23 08:04:07;;;;;;;1.40;1.30;;;26.30;99.90;;;;;;5036843;28;20529;-61
2021/08/23 08:06:34;;;;;;;3.93;1.30;;;26.60;99.90;;;;;;5048507;28;20525;-62
2021/08/23 08:09:02;;;;;;;1.97;1.57;;;26.80;99.90;;;;;;5047378;28;20447;-62
2021/08/23 08:11:29;;;;;;;2.90;1.50;;;27.30;99.90;;;;;;5053477;28;20520;-62
2021/08/23 08:13:56;;;;;;;2.65;1.70;;;27.10;99.90;;;;;;5043311;28;20529;-62
2021/08/23 08:16:23;;;;;;;2.40;1.77;;;27.20;99.90;;;;;;5049285;28;20575;-62
2021/08/23 08:18:50;;;;;;;1.97;1.77;;;27.20;99.90;;;;;;5035667;28;20477;-62
2021/08/23 08:21:17;;;;;;;1.87;1.77;;;27.10;99.90;;;;;;5037708;28;20436;-62
2021/08/23 08:23:44;;;;;;;2.00;1.63;;;27.40;99.90;;;;;;5050791;28;20962;-62
2021/08/23 08:26:13;;;;;;;2.07;1.80;;;27.30;99.90;;;;;;5050359;28;21038;-62
2021/08/23 08:28:40;;;;;;;3.83;1.90;;;27.80;99.90;;;;;;5058750;28;20492;-62
2021/08/23 08:31:06;;;;;;;3.43;1.60;;;27.10;99.90;;;;;;5052828;28;20509;-62
2021/08/23 08:33:33;;;;;;;2.23;1.50;;;27.90;99.90;;;;;;5051610;28;20471;-62
2021/08/23 08:36:00;;;;;;;1.80;1.70;;;28.50;99.90;;;;;;5051965;28;20958;-62
2021/08/23 08:38:27;;;;;;;2.07;1.40;;;28.80;99.90;;;;;;5040131;28;20535;-62
2021/08/23 08:40:59;;;;;;;1.63;1.53;;;29.10;99.90;;;;;;5048706;28;20510;-62
2021/08/23 08:43:28;;;;;;;1.50;1.40;;;29.30;99.90;;;;;;5050147;28;20464;-62
2021/08/23 08:52:40;;;;;;;1.40;1.30;;;28.20;99.90;;;;;;5041854;28;20524;-62
2021/08/23 08:55:07;;;;;;;2.30;1.27;;;28.10;99.90;;;;;;5051733;28;20475;-62
2021/08/23 08:57:35;;;;;;;1.73;1.40;;;27.50;99.90;;;;;;5050573;28;20480;-62
2021/08/23 09:00:04;;;;;;;1.90;1.70;;;26.70;99.90;;;;;;5046295;28;20499;-61
2021/08/23 09:02:33;;;;;;;1.97;1.87;;;25.30;99.90;;;;;;5050891;28;20444;-61
2021/08/23 09:05:04;;;;;;;1.70;1.60;;;23.30;99.90;;;;;;5051955;28;20646;-61
2021/08/23 09:07:37;;;;;;;2.00;1.80;;;21.70;99.90;;;;;;5052270;28;20953;-61
2021/08/23 09:10:18;;;;;;;3.93;2.10;;;21.00;99.90;;;;;;5051224;28;20466;-61
2021/08/23 09:12:45;;;;;;;2.30;1.70;;;20.50;99.90;;;;;;5046514;28;20440;-60
2021/08/23 09:15:16;;;;;;;2.70;2.10;;;20.30;99.90;;;;;;5052161;28;20471;-60
2021/08/23 09:17:45;;;;;;;2.20;2.07;;;20.00;99.90;;;;;;5051902;28;20530;-61
2021/08/23 09:20:15;;;;;;;5.00;2.70;;;19.80;99.90;;;;;;5051414;28;20452;-61
2021/08/23 09:22:42;;;;;;;2.83;2.37;;;19.70;99.90;;;;;;5051447;28;20543;-61
2021/08/23 09:25:10;;;;;;;3.60;2.10;;;19.30;99.90;;;;;;5051694;28;20468;-60
2021/08/23 09:27:37;;;;;;;2.10;1.87;;;19.50;99.90;;;;;;5051690;28;20444;-61
2021/08/23 09:30:06;;;;;;;2.53;2.30;;;19.80;99.90;;;;;;5050688;28;20961;-61
2021/08/23 09:32:36;;;;;;;3.23;2.33;;;19.90;99.90;;;;;;5051107;28;20953;-61
2021/08/23 09:35:03;;;;;;;2.70;2.13;;;20.10;99.90;;;;;;5051989;28;20529;-61
2021/08/23 09:37:31;;;;;;;2.17;1.93;;;20.30;99.90;;;;;;5051820;28;20443;-61
2021/08/23 09:40:09;;;;;;;4.57;2.33;;;20.90;99.90;;;;;;5051427;28;20460;-61
2021/08/23 09:42:38;;;;;;;2.17;1.80;;;21.10;99.90;;;;;;5051340;28;20458;-61
2021/08/23 09:45:15;;;;;;;2.60;1.97;;;21.50;99.90;;;;;;5051563;28;20463;-61
2021/08/23 09:47:44;;;;;;;3.40;2.50;;;21.70;99.90;;;;;;5047540;28;20999;-61
2021/08/23 09:50:15;;;;;;;2.40;2.00;;;21.90;99.90;;;;;;5050653;28;20456;-61
2021/08/23 09:52:42;;;;;;;3.23;2.40;;;21.90;99.90;;;;;;5050500;28;20881;-61
2021/08/23 09:55:12;;;;;;;2.57;2.37;;;22.30;99.90;;;;;;5050870;28;20499;-61
2021/08/23 09:57:41;;;;;;;2.20;1.97;;;22.90;99.90;;;;;;5049716;28;20452;-62
2021/08/23 10:00:12;;;;;;;4.63;1.93;;;23.20;99.90;;;;;;5050755;28;20448;-61
2021/08/23 10:02:46;;;;;;;2.20;1.97;;;24.10;99.90;;;;;;5050911;28;20478;-62
2021/08/23 10:05:15;;;;;;;2.27;2.07;;;24.20;99.90;;;;;;5051097;28;20467;-62
2021/08/23 10:07:42;;;;;;;3.37;1.90;;;24.60;99.90;;;;;;5051262;28;20881;-62
2021/08/23 10:10:11;;;;;;;2.07;1.87;;;25.30;99.90;;;;;;5051245;28;20448;-62
2021/08/23 10:12:38;;;;;;;4.47;2.00;;;26.20;99.90;;;;;;5050661;28;20497;-62
2021/08/23 10:15:06;;;;;;;1.73;1.63;;;26.40;99.90;;;;;;5050647;28;20525;-62
2021/08/23 10:17:37;;;;;;;1.40;1.30;;;26.40;99.90;;;;;;5050793;28;20482;-62
2021/08/23 10:20:07;;;;;;;2.43;1.40;;;26.30;99.90;;;;;;5050746;28;20448;-62
2021/08/23 10:22:35;;;;;;;2.90;1.80;;;26.80;99.90;;;;;;5050610;28;20502;-62
2021/08/23 10:25:04;;;;;;;3.50;1.87;;;27.40;99.90;;;;;;5051117;28;21195;-62
2021/08/23 10:27:39;;;;;;;2.23;1.93;;;27.40;99.90;;;;;;5050657;28;20885;-62
2021/08/23 10:30:08;;;;;;;3.37;1.67;;;27.40;99.90;;;;;;5031386;28;20471;-62
2021/08/23 10:32:39;;;;;;;2.37;1.60;;;25.50;99.90;;;;;;5048769;28;20534;-62
2021/08/23 10:35:18;;;;;;;3.30;2.00;;;25.00;99.90;;;;;;5049849;28;20471;-61
2021/08/23 10:37:45;;;;;;;2.73;2.00;;;24.00;99.90;;;;;;5050512;28;20604;-61
2021/08/23 10:40:14;;;;;;;3.57;2.10;;;23.70;99.90;;;;;;5040816;28;20463;-62
2021/08/23 10:42:46;;;;;;;2.50;1.97;;;24.00;99.90;;;;;;5046823;28;21019;-62
2021/08/23 10:45:16;;;;;;;2.83;2.20;;;24.60;99.90;;;;;;5040548;28;20973;-62
2021/08/23 10:47:43;;;;;;;2.93;2.07;;;25.00;99.90;;;;;;5035531;28;20536;-62
2021/08/23 10:50:21;;;;;;;3.00;2.03;;;25.50;99.90;;;;;;5030196;28;20995;-62
2021/08/23 10:52:49;;;;;;;3.50;1.93;;;26.10;99.90;;;;;;5031403;28;20986;-62
2021/08/23 10:55:21;;;;;;;4.50;1.60;;;26.30;99.90;;;;;;5048101;28;20559;-62
2021/08/23 10:57:49;;;;;;;2.80;1.90;;;26.30;99.90;;;;;;5036955;28;20518;-62
2021/08/23 11:00:17;;;;;;;2.70;2.00;;;26.30;99.90;;;;;;5031248;28;20502;-62
2021/08/23 11:02:44;;;;;;;2.57;2.00;;;26.30;99.90;;;;;;5046597;28;20453;-62
2021/08/23 11:05:14;;;;;;;3.53;2.20;;;26.50;99.90;;;;;;5045420;28;20969;-62
2021/08/23 11:07:44;;;;;;;2.03;1.70;;;26.80;99.90;;;;;;5030418;28;20477;-62
2021/08/23 11:10:13;;;;;;;3.90;2.10;;;26.70;99.90;;;;;;5042679;28;20935;-62
2021/08/23 11:12:44;;;;;;;1.93;1.83;;;26.30;99.90;;;;;;5048169;28;20454;-62
2021/08/23 11:15:16;;;;;;;2.70;2.10;;;25.50;99.90;;;;;;5050375;28;21039;-62
2021/08/23 11:17:48;;;;;;;1.87;1.70;;;25.60;99.90;;;;;;5050784;28;20501;-62
2021/08/23 11:20:20;;;;;;;2.60;2.00;;;25.80;99.90;;;;;;5050699;28;20845;-62
2021/08/23 11:22:54;;;;;;;1.90;1.80;;;25.80;99.90;;;;;;5050102;28;20490;-62
2021/08/23 11:25:27;;;;;;;4.40;2.03;;;25.00;99.90;;;;;;5051306;28;20497;-62
2021/08/23 11:27:54;;;;;;;3.33;2.40;;;23.30;99.90;;;;;;5053850;28;20448;-61
2021/08/23 11:30:28;;;;;;;2.57;2.37;;;22.10;99.90;;;;;;5054406;28;20448;-61
2021/08/23 11:32:55;;;;;;;3.13;2.30;;;22.00;99.90;;;;;;5053578;28;20509;-61
2021/08/23 11:35:23;;;;;;;2.97;2.30;;;22.10;99.90;;;;;;5053587;28;21111;-62
2021/08/23 11:37:57;;;;;;;3.33;2.40;;;22.20;99.90;;;;;;5054027;28;20509;-61
2021/08/23 11:40:24;;;;;;;2.73;2.30;;;21.80;99.90;;;;;;5053846;28;20999;-61
2021/08/23 11:42:56;;;;;;;2.93;2.00;;;21.70;99.90;;;;;;5052206;28;20463;-61
2021/08/23 11:45:27;;;;;;;3.10;2.10;;;22.00;99.90;;;;;;5033714;28;20468;-61
2021/08/23 11:47:54;;;;;;;3.37;2.53;;;21.60;99.90;;;;;;5034772;28;20939;-61
2021/08/23 11:50:22;;;;;;;3.00;2.00;;;21.70;99.90;;;;;;5033588;28;20445;-61
2021/08/23 11:52:49;;;;;;;2.30;2.20;;;22.00;99.90;;;;;;5037140;28;20444;-61
2021/08/23 11:55:29;;;;;;;6.03;2.40;;;22.30;99.90;;;;;;5032885;28;20837;-61
2021/08/23 11:58:00;;;;;;;2.77;2.13;;;22.20;99.90;;;;;;5040944;28;20445;-61
2021/08/23 12:00:27;;;;;;;4.27;2.07;;;22.10;99.90;;;;;;5032626;28;20484;-62
2021/08/23 12:03:07;;;;;;;4.57;2.37;;;22.20;99.90;;;;;;5034201;28;20499;-61
2021/08/23 12:05:39;;;;;;;11.80;2.30;;;22.30;99.90;;;;;;5051549;28;20467;-61
2021/08/23 12:08:08;;;;;;;3.00;1.83;;;22.70;99.90;;;;;;5052610;28;20451;-61
2021/08/23 12:10:38;;;;;;;5.30;2.57;;;23.10;99.90;;;;;;5033630;28;20480;-61
2021/08/23 12:13:14;;;;;;;1.97;1.77;;;23.20;99.90;;;;;;5046785;28;20453;-61
2021/08/23 12:15:56;;;;;;;2.50;2.30;;;23.50;99.90;;;;;;5043893;28;20848;-61
2021/08/23 12:18:31;;;;;;;2.17;2.07;;;23.30;99.90;;;;;;5041575;28;20443;-61
2021/08/23 12:21:11;;;;;;;4.00;2.37;;;23.40;99.90;;;;;;5047591;28;20459;-61
2021/08/23 12:23:50;;;;;;;4.83;3.00;;;23.60;99.90;;;;;;5039156;28;20482;-61
2021/08/23 12:26:31;;;;;;;3.00;2.00;;;23.80;99.90;;;;;;5043699;28;20509;-61
2021/08/23 12:29:01;;;;;;;4.93;2.57;;;24.00;99.90;;;;;;5050340;28;20439;-61
2021/08/23 12:31:28;;;;;;;4.60;2.20;;;24.00;99.90;;;;;;5043509;28;20447;-61
2021/08/23 12:33:55;;;;;;;5.93;2.40;;;24.30;99.90;;;;;;5043738;28;20480;-61
2021/08/23 12:36:22;;;;;;;3.50;2.07;;;23.70;99.90;;;;;;5050958;28;20501;-61
2021/08/23 12:38:49;;;;;;;3.13;2.30;;;23.30;99.90;;;;;;5042393;28;20473;-61
2021/08/23 12:41:18;;;;;;;2.27;2.00;;;23.20;99.90;;;;;;5032423;28;20518;-61
2021/08/23 12:43:45;;;;;;;4.00;2.33;;;23.40;99.90;;;;;;5049310;28;20505;-61
2021/08/23 12:46:12;;;;;;;2.80;2.60;;;23.40;99.90;;;;;;5050066;28;20543;-61
2021/08/23 12:48:39;;;;;;;3.50;2.20;;;23.10;99.90;;;;;;5050999;28;20444;-61
2021/08/23 12:51:06;;;;;;;3.40;2.50;;;22.70;99.90;;;;;;5044587;28;20878;-61
2021/08/23 12:53:34;;;;;;;2.30;2.10;;;22.90;99.90;;;;;;5049362;28;20547;-61
2021/08/23 12:56:01;;;;;;;2.50;2.30;;;22.70;99.90;;;;;;5042071;28;20509;-61
2021/08/23 12:58:30;;;;;;;4.03;2.47;;;22.60;99.90;;;;;;5050520;28;20443;-61
2021/08/23 13:00:58;;;;;;;3.53;2.70;;;22.40;99.90;;;;;;5031725;28;20449;-61
2021/08/23 13:03:25;;;;;;;3.63;2.50;;;22.40;99.90;;;;;;5034410;28;20509;-61
2021/08/23 13:05:52;;;;;;;2.93;2.37;;;22.70;99.90;;;;;;5050645;28;20517;-61
2021/08/23 13:08:19;;;;;;;2.70;2.37;;;23.00;99.90;;;;;;5051790;28;21024;-61
2021/08/23 13:10:46;;;;;;;1.90;1.80;;;22.90;99.90;;;;;;5052231;28;20460;-61